createdAt,value
2023-01-29T00:02:31.005Z,89.73
2023-01-29T00:06:23.945Z,89.85
2023-01-29T00:10:17.161Z,89.86
2023-01-29T00:14:10.310Z,89.75
2023-01-29T00:18:03.076Z,89.69
2023-01-29T00:21:56.367Z,89.62
2023-01-29T00:25:49.152Z,89.63
2023-01-29T00:29:42.351Z,89.85
2023-01-29T00:33:35.221Z,89.69
2023-01-29T00:37:27.891Z,89.61
2023-01-29T00:41:40.879Z,89.37
2023-01-29T00:45:34.110Z,89.50
2023-01-29T00:49:26.805Z,89.67
2023-01-29T00:53:20.248Z,89.52
2023-01-29T00:57:13.099Z,89.35
2023-01-29T01:01:06.001Z,88.92
2023-01-29T01:04:58.716Z,88.95
2023-01-29T01:09:09.939Z,88.94
2023-01-29T01:13:06.147Z,88.80
2023-01-29T01:16:58.705Z,89.07
2023-01-29T01:20:59.074Z,89.00
2023-01-29T01:24:51.747Z,88.91
2023-01-29T01:28:45.027Z,88.80
2023-01-29T01:32:38.979Z,88.61
2023-01-29T01:36:32.571Z,88.51
2023-01-29T01:40:26.289Z,88.29
2023-01-29T01:44:53.456Z,87.99
2023-01-29T01:48:49.379Z,87.81
2023-01-29T01:52:49.184Z,88.04
2023-01-29T01:56:47.345Z,88.12
2023-01-29T02:00:40.259Z,88.26
2023-01-29T02:04:51.831Z,87.80
2023-01-29T02:09:15.068Z,87.73
2023-01-29T02:13:08.325Z,87.52
2023-01-29T02:17:01.879Z,87.34
2023-01-29T02:21:07.900Z,87.19
2023-01-29T02:25:18.476Z,87.47
2023-01-29T02:29:35.460Z,86.95
2023-01-29T02:33:49.418Z,87.54
2023-01-29T02:38:18.222Z,87.16
2023-01-29T02:42:36.008Z,86.74
2023-01-29T02:46:47.271Z,86.88
2023-01-29T02:50:58.222Z,86.79
2023-01-29T02:54:57.149Z,87.07
2023-01-29T02:58:49.740Z,86.90
2023-01-29T03:02:59.865Z,86.86
2023-01-29T03:06:57.240Z,86.88
2023-01-29T03:11:02.981Z,86.96
2023-01-29T03:15:13.269Z,86.55
2023-01-29T03:19:37.534Z,87.00
2023-01-29T03:23:52.341Z,87.08
2023-01-29T03:28:06.263Z,87.01
2023-01-29T03:32:08.545Z,86.95
2023-01-29T03:36:10.363Z,86.93
2023-01-29T03:40:05.381Z,86.95
2023-01-29T03:44:10.321Z,87.12
2023-01-29T03:48:35.810Z,87.22
2023-01-29T03:53:07.186Z,87.17
2023-01-29T03:57:05.782Z,86.26
2023-01-29T04:01:15.339Z,85.92
2023-01-29T04:05:17.561Z,85.25
2023-01-29T04:09:22.292Z,85.94
2023-01-29T04:13:16.813Z,85.02
2023-01-29T04:17:15.168Z,85.42
2023-01-29T04:21:09.432Z,85.22
2023-01-29T04:25:16.181Z,83.96
2023-01-29T04:29:30.442Z,84.21
2023-01-29T04:33:23.053Z,83.80
2023-01-29T04:37:30.797Z,83.83
2023-01-29T04:41:32.364Z,83.94
2023-01-29T04:45:33.948Z,84.37
2023-01-29T04:49:35.747Z,84.78
2023-01-29T04:54:11.209Z,84.92
2023-01-29T04:58:10.699Z,84.87
2023-01-29T05:02:06.507Z,85.28
2023-01-29T05:06:02.058Z,85.80
2023-01-29T05:09:55.413Z,85.17
2023-01-29T05:13:49.127Z,85.02
2023-01-29T05:17:42.774Z,85.33
2023-01-29T05:21:35.337Z,85.98
2023-01-29T05:25:31.440Z,86.15
2023-01-29T05:29:24.369Z,86.14
2023-01-29T05:33:19.822Z,85.99
2023-01-29T05:37:12.292Z,85.94
2023-01-29T05:41:05.092Z,85.84
2023-01-29T05:44:58.051Z,86.03
2023-01-29T05:48:52.853Z,86.02
2023-01-29T05:52:45.845Z,85.77
2023-01-29T05:56:39.759Z,85.34
2023-01-29T06:00:32.947Z,85.01
2023-01-29T06:04:25.619Z,84.88
2023-01-29T06:08:18.315Z,84.10
2023-01-29T06:12:11.477Z,84.70
2023-01-29T06:16:08.489Z,85.01
2023-01-29T06:20:01.399Z,85.09
2023-01-29T06:23:54.248Z,84.79
2023-01-29T06:27:50.358Z,84.62
2023-01-29T06:31:43.104Z,84.81
2023-01-29T06:35:35.925Z,84.60
2023-01-29T06:39:28.839Z,84.44
2023-01-29T06:43:22.496Z,84.74
2023-01-29T06:47:15.152Z,84.17
2023-01-29T06:51:09.651Z,84.58
2023-01-29T06:55:02.271Z,84.33
2023-01-29T06:58:54.959Z,84.40
2023-01-29T07:02:50.768Z,83.68
2023-01-29T07:06:43.373Z,83.65
2023-01-29T07:10:36.368Z,83.68
2023-01-29T07:14:29.308Z,83.65
2023-01-29T07:18:21.876Z,83.64
2023-01-29T07:22:15.088Z,83.45
2023-01-29T07:26:08.274Z,83.41
2023-01-29T07:30:01.020Z,82.84
2023-01-29T07:33:54.069Z,82.73
2023-01-29T07:37:49.876Z,83.02
2023-01-29T07:41:43.365Z,82.19
2023-01-29T07:45:37.971Z,82.57
2023-01-29T07:49:30.744Z,82.50
2023-01-29T07:53:24.065Z,82.28
2023-01-29T07:57:16.820Z,82.13
2023-01-29T08:01:09.840Z,81.43
2023-01-29T08:05:02.599Z,81.48
2023-01-29T08:08:57.543Z,80.31
2023-01-29T08:12:58.831Z,79.24
2023-01-29T08:16:51.697Z,80.23
2023-01-29T08:20:44.392Z,80.05
2023-01-29T08:24:53.194Z,79.65
2023-01-29T08:28:49.678Z,79.44
2023-01-29T08:32:42.303Z,79.24
2023-01-29T08:36:35.430Z,79.53
2023-01-29T08:40:32.041Z,79.06
2023-01-29T08:44:25.104Z,78.87
2023-01-29T08:48:17.883Z,79.09
2023-01-29T08:52:11.170Z,78.35
2023-01-29T08:56:04.111Z,78.21
2023-01-29T08:59:56.883Z,78.28
2023-01-29T09:03:50.423Z,78.10
2023-01-29T09:07:43.326Z,77.89
2023-01-29T09:11:35.929Z,77.92
2023-01-29T09:15:28.776Z,76.30
2023-01-29T09:19:21.810Z,73.78
2023-01-29T09:23:14.576Z,74.11
2023-01-29T09:27:07.167Z,74.52
2023-01-29T09:31:03.180Z,75.23
2023-01-29T09:34:56.057Z,75.61
2023-01-29T09:38:48.842Z,75.91
2023-01-29T09:42:48.753Z,75.13
2023-01-29T09:46:45.198Z,74.57
2023-01-29T09:50:41.158Z,73.50
2023-01-29T09:54:59.975Z,73.57
2023-01-29T09:58:52.643Z,72.73
2023-01-29T10:03:22.946Z,72.44
2023-01-29T10:07:55.827Z,73.30
2023-01-29T10:12:09.769Z,73.45
2023-01-29T10:16:20.944Z,73.50
2023-01-29T10:20:35.554Z,73.25
2023-01-29T10:24:47.487Z,73.17
2023-01-29T10:28:48.685Z,72.78
2023-01-29T10:32:41.335Z,72.28
2023-01-29T10:36:46.987Z,71.60
2023-01-29T10:40:48.306Z,71.98
2023-01-29T10:44:43.982Z,71.67
2023-01-29T10:49:08.626Z,71.91
2023-01-29T10:53:01.462Z,70.01
2023-01-29T10:57:07.528Z,71.20
2023-01-29T11:01:00.775Z,70.82
2023-01-29T11:04:53.585Z,69.84
2023-01-29T11:08:46.043Z,69.57
2023-01-29T11:12:39.774Z,67.99
2023-01-29T11:16:40.603Z,68.84
2023-01-29T11:20:34.323Z,68.94
2023-01-29T11:24:28.044Z,68.36
2023-01-29T11:28:41.811Z,68.48
2023-01-29T11:32:35.628Z,67.55
2023-01-29T11:36:35.502Z,67.55
2023-01-29T11:40:39.952Z,67.79
2023-01-29T11:44:42.171Z,67.04
2023-01-29T11:48:59.060Z,67.23
2023-01-29T11:52:55.901Z,66.77
2023-01-29T11:56:49.297Z,67.61
2023-01-29T12:00:47.103Z,66.41
2023-01-29T12:04:40.568Z,66.73
2023-01-29T12:08:40.169Z,67.85
2023-01-29T12:12:37.834Z,68.88
2023-01-29T12:16:30.550Z,68.71
2023-01-29T12:20:30.462Z,69.35
2023-01-29T12:24:39.309Z,69.59
2023-01-29T12:29:03.487Z,69.39
2023-01-29T12:33:27.328Z,68.89
2023-01-29T12:37:37.714Z,69.74
2023-01-29T12:41:41.941Z,70.54
2023-01-29T12:45:37.886Z,68.29
2023-01-29T12:49:35.647Z,69.07
2023-01-29T12:53:31.085Z,69.28
2023-01-29T12:57:29.904Z,68.28
2023-01-29T13:01:39.665Z,69.09
2023-01-29T13:05:49.043Z,68.37
2023-01-29T13:09:46.838Z,67.51
2023-01-29T13:13:54.698Z,68.43
2023-01-29T13:17:56.417Z,68.58
2023-01-29T13:21:52.088Z,67.53
2023-01-29T13:25:46.011Z,68.18
2023-01-29T13:29:39.025Z,67.97
2023-01-29T13:33:31.953Z,66.85
2023-01-29T13:37:28.614Z,68.28
2023-01-29T13:41:33.043Z,68.34
2023-01-29T13:45:45.846Z,67.58
2023-01-29T13:49:44.315Z,67.39
2023-01-29T13:53:40.868Z,67.41
2023-01-29T13:57:46.772Z,67.05
2023-01-29T14:01:48.551Z,67.80
2023-01-29T14:05:57.410Z,68.58
2023-01-29T14:09:50.397Z,68.68
2023-01-29T14:13:48.418Z,68.88
2023-01-29T14:17:56.220Z,69.19
2023-01-29T14:21:51.103Z,69.01
2023-01-29T14:25:44.479Z,68.83
2023-01-29T14:29:42.263Z,69.28
2023-01-29T14:33:39.881Z,69.49
2023-01-29T14:37:42.050Z,69.85
2023-01-29T14:41:36.728Z,69.68
2023-01-29T14:45:31.351Z,69.16
2023-01-29T14:49:54.805Z,69.13
2023-01-29T14:54:21.682Z,69.81
2023-01-29T14:58:22.926Z,70.05
2023-01-29T15:02:34.009Z,69.86
2023-01-29T15:06:29.667Z,70.15
2023-01-29T15:10:33.377Z,70.47
2023-01-29T15:14:36.823Z,70.27
2023-01-29T15:18:41.808Z,70.67
2023-01-29T15:22:43.486Z,70.89
2023-01-29T15:26:36.949Z,70.90
2023-01-29T15:30:33.732Z,71.78
2023-01-29T15:34:26.701Z,71.52
2023-01-29T15:38:21.857Z,72.11
2023-01-29T15:42:23.822Z,72.28
2023-01-29T15:46:28.099Z,72.03
2023-01-29T15:50:22.863Z,72.94
2023-01-29T15:54:18.517Z,73.41
2023-01-29T15:58:31.457Z,73.12
2023-01-29T16:02:42.029Z,73.60
2023-01-29T16:06:41.227Z,73.56
2023-01-29T16:10:35.374Z,74.00
2023-01-29T16:14:30.301Z,73.31
2023-01-29T16:18:37.491Z,73.57
2023-01-29T16:22:34.005Z,73.79
2023-01-29T16:26:43.004Z,73.87
2023-01-29T16:30:39.411Z,73.81
2023-01-29T16:34:48.882Z,74.54
2023-01-29T16:38:44.750Z,74.42
2023-01-29T16:42:42.352Z,74.35
2023-01-29T16:46:48.130Z,73.99
2023-01-29T16:50:54.209Z,74.61
2023-01-29T16:54:48.798Z,74.54
2023-01-29T16:58:42.888Z,75.10
2023-01-29T17:02:40.909Z,74.22
2023-01-29T17:06:35.289Z,74.66
2023-01-29T17:10:30.749Z,74.90
2023-01-29T17:14:26.668Z,75.10
2023-01-29T17:18:26.166Z,75.48
2023-01-29T17:22:21.553Z,75.25
2023-01-29T17:26:17.087Z,75.18
2023-01-29T17:30:16.238Z,75.34
2023-01-29T17:34:16.262Z,75.86
2023-01-29T17:38:24.339Z,75.49
2023-01-29T17:42:22.837Z,75.38
2023-01-29T17:46:19.149Z,75.29
2023-01-29T17:50:26.987Z,75.46
2023-01-29T17:54:21.164Z,75.86
2023-01-29T17:58:20.420Z,75.72
2023-01-29T18:02:29.552Z,76.51
2023-01-29T18:06:29.958Z,76.36
2023-01-29T18:10:27.124Z,76.34
2023-01-29T18:14:22.568Z,76.68
2023-01-29T18:18:23.114Z,77.51
2023-01-29T18:22:17.566Z,77.54
2023-01-29T18:26:12.948Z,78.39
2023-01-29T18:30:10.747Z,78.25
2023-01-29T18:34:04.947Z,77.92
2023-01-29T18:37:59.149Z,78.28
2023-01-29T18:41:54.755Z,78.72
2023-01-29T18:45:49.554Z,78.59
2023-01-29T18:49:43.641Z,79.04
2023-01-29T18:53:38.809Z,78.79
2023-01-29T18:58:25.911Z,79.17
2023-01-29T19:01:49.322Z,79.44
2023-01-29T19:05:43.095Z,79.68
2023-01-29T19:09:37.973Z,79.66
2023-01-29T19:13:36.723Z,79.40
2023-01-29T19:17:31.331Z,79.83
2023-01-29T19:21:25.971Z,79.80
2023-01-29T19:25:20.433Z,79.86
2023-01-29T19:29:15.255Z,80.14
2023-01-29T19:33:11.184Z,79.71
2023-01-29T19:37:06.488Z,80.01
2023-01-29T19:41:02.848Z,79.82
2023-01-29T19:44:58.460Z,80.09
2023-01-29T19:48:52.886Z,79.87
2023-01-29T19:52:51.439Z,80.10
2023-01-29T19:56:46.321Z,80.06
2023-01-29T20:00:40.436Z,79.61
2023-01-29T20:04:36.978Z,79.51
2023-01-29T20:08:31.206Z,79.64
2023-01-29T20:12:28.814Z,79.00
2023-01-29T20:16:25.639Z,79.42
2023-01-29T20:20:20.087Z,80.00
2023-01-29T20:24:14.349Z,79.54
2023-01-29T20:28:12.850Z,79.82
2023-01-29T20:32:09.047Z,80.58
2023-01-29T20:36:06.686Z,80.47
2023-01-29T20:40:02.742Z,79.95
2023-01-29T20:43:58.074Z,79.85
2023-01-29T20:47:52.980Z,79.34
2023-01-29T20:51:46.976Z,79.58
2023-01-29T20:55:43.907Z,80.24
2023-01-29T20:59:40.840Z,80.42
2023-01-29T21:03:34.862Z,80.30
2023-01-29T21:07:29.064Z,80.72
2023-01-29T21:11:23.254Z,80.90
2023-01-29T21:15:16.818Z,81.46
2023-01-29T21:19:15.100Z,81.39
2023-01-29T21:23:11.895Z,81.54
2023-01-29T21:27:05.576Z,81.98
2023-01-29T21:31:11.311Z,81.57
2023-01-29T21:35:04.881Z,81.31
2023-01-29T21:38:58.300Z,80.86
2023-01-29T21:43:11.091Z,80.65
2023-01-29T21:47:14.341Z,80.51
2023-01-29T21:51:08.209Z,81.17
2023-01-29T21:55:01.497Z,81.64
2023-01-29T21:58:54.631Z,81.48
2023-01-29T22:02:50.153Z,81.72
2023-01-29T22:06:43.024Z,81.39
2023-01-29T22:10:37.063Z,81.64
2023-01-29T22:14:29.926Z,81.58
2023-01-29T22:18:22.624Z,81.42
2023-01-29T22:22:17.132Z,81.21
2023-01-29T22:26:11.218Z,80.80
2023-01-29T22:30:05.640Z,81.06
2023-01-29T22:33:58.190Z,81.34
2023-01-29T22:37:50.899Z,81.31
2023-01-29T22:41:43.454Z,81.19
2023-01-29T22:45:39.435Z,81.29
2023-01-29T22:49:32.296Z,81.99
2023-01-29T22:53:24.919Z,81.96
2023-01-29T22:57:17.700Z,82.12
2023-01-29T23:01:11.276Z,82.13
2023-01-29T23:05:04.705Z,82.29
2023-01-29T23:08:57.421Z,82.46
2023-01-29T23:12:50.012Z,82.77
2023-01-29T23:16:42.648Z,82.89
2023-01-29T23:20:35.476Z,83.03
2023-01-29T23:24:28.045Z,83.34
2023-01-29T23:28:20.555Z,82.65
2023-01-29T23:32:15.797Z,83.23
2023-01-29T23:36:08.909Z,83.10
2023-01-29T23:40:01.566Z,83.03
2023-01-29T23:43:54.360Z,83.31
2023-01-29T23:47:47.125Z,83.11
2023-01-29T23:51:40.029Z,82.87
2023-01-29T23:55:32.952Z,82.81
2023-01-29T23:59:28.648Z,82.57
